sensor_id;sensor_type;location;lat;lon;timestamp;P1;durP1;ratioP1;P2;durP2;ratioP2
62941;SDS011;49042;47.318;19.874;2022-07-10T00:03:00;2.78;;;0.98;;
62941;SDS011;49042;47.318;19.874;2022-07-10T00:06:03;4.00;;;1.10;;
62941;SDS011;49042;47.318;19.874;2022-07-10T00:09:05;1.00;;;0.88;;
62941;SDS011;49042;47.318;19.874;2022-07-10T00:12:07;1.02;;;0.82;;
62941;SDS011;49042;47.318;19.874;2022-07-10T00:15:09;2.08;;;1.10;;
62941;SDS011;49042;47.318;19.874;2022-07-10T00:18:12;3.78;;;1.27;;
62941;SDS011;49042;47.318;19.874;2022-07-10T00:21:13;2.67;;;1.20;;
62941;SDS011;49042;47.318;19.874;2022-07-10T00:24:15;1.15;;;0.98;;
62941;SDS011;49042;47.318;19.874;2022-07-10T00:27:17;2.35;;;1.10;;
62941;SDS011;49042;47.318;19.874;2022-07-10T00:30:20;2.65;;;1.20;;
62941;SDS011;49042;47.318;19.874;2022-07-10T00:33:22;1.95;;;1.15;;
62941;SDS011;49042;47.318;19.874;2022-07-10T00:36:42;1.65;;;0.95;;
62941;SDS011;49042;47.318;19.874;2022-07-10T00:39:45;1.10;;;1.00;;
62941;SDS011;49042;47.318;19.874;2022-07-10T00:42:47;2.45;;;0.93;;
62941;SDS011;49042;47.318;19.874;2022-07-10T00:45:49;4.53;;;1.17;;
62941;SDS011;49042;47.318;19.874;2022-07-10T00:48:51;1.62;;;1.05;;
62941;SDS011;49042;47.318;19.874;2022-07-10T00:51:53;2.47;;;0.90;;
62941;SDS011;49042;47.318;19.874;2022-07-10T00:54:56;1.48;;;1.10;;
62941;SDS011;49042;47.318;19.874;2022-07-10T00:57:58;7.12;;;1.40;;
62941;SDS011;49042;47.318;19.874;2022-07-10T01:01:01;1.20;;;1.10;;
62941;SDS011;49042;47.318;19.874;2022-07-10T01:04:03;1.40;;;0.98;;
62941;SDS011;49042;47.318;19.874;2022-07-10T01:07:05;2.20;;;1.10;;
62941;SDS011;49042;47.318;19.874;2022-07-10T01:10:07;4.72;;;1.05;;
62941;SDS011;49042;47.318;19.874;2022-07-10T01:13:09;1.98;;;0.98;;
62941;SDS011;49042;47.318;19.874;2022-07-10T01:16:12;1.98;;;1.12;;
62941;SDS011;49042;47.318;19.874;2022-07-10T01:19:14;3.08;;;0.88;;
62941;SDS011;49042;47.318;19.874;2022-07-10T01:22:16;3.17;;;1.27;;
62941;SDS011;49042;47.318;19.874;2022-07-10T01:25:18;1.60;;;1.00;;
62941;SDS011;49042;47.318;19.874;2022-07-10T01:28:20;1.10;;;1.00;;
62941;SDS011;49042;47.318;19.874;2022-07-10T01:31:26;1.92;;;1.10;;
62941;SDS011;49042;47.318;19.874;2022-07-10T01:34:28;2.12;;;1.20;;
62941;SDS011;49042;47.318;19.874;2022-07-10T01:37:30;2.90;;;1.30;;
62941;SDS011;49042;47.318;19.874;2022-07-10T01:40:32;3.33;;;1.20;;
62941;SDS011;49042;47.318;19.874;2022-07-10T01:43:37;2.83;;;1.02;;
62941;SDS011;49042;47.318;19.874;2022-07-10T01:46:44;2.45;;;1.30;;
62941;SDS011;49042;47.318;19.874;2022-07-10T01:49:47;1.90;;;1.15;;
62941;SDS011;49042;47.318;19.874;2022-07-10T01:52:48;2.60;;;1.02;;
62941;SDS011;49042;47.318;19.874;2022-07-10T01:55:50;2.22;;;1.23;;
62941;SDS011;49042;47.318;19.874;2022-07-10T01:58:52;7.00;;;1.17;;
62941;SDS011;49042;47.318;19.874;2022-07-10T02:01:54;2.35;;;1.20;;
62941;SDS011;49042;47.318;19.874;2022-07-10T02:04:56;1.75;;;0.95;;
62941;SDS011;49042;47.318;19.874;2022-07-10T02:07:58;1.10;;;1.00;;
62941;SDS011;49042;47.318;19.874;2022-07-10T02:11:00;1.40;;;1.05;;
62941;SDS011;49042;47.318;19.874;2022-07-10T02:14:02;2.17;;;1.05;;
62941;SDS011;49042;47.318;19.874;2022-07-10T02:17:04;2.65;;;1.08;;
62941;SDS011;49042;47.318;19.874;2022-07-10T02:20:07;1.58;;;0.90;;
62941;SDS011;49042;47.318;19.874;2022-07-10T02:23:11;1.25;;;1.02;;
62941;SDS011;49042;47.318;19.874;2022-07-10T02:26:13;2.72;;;0.98;;
62941;SDS011;49042;47.318;19.874;2022-07-10T02:29:15;2.00;;;0.98;;
62941;SDS011;49042;47.318;19.874;2022-07-10T02:32:17;1.77;;;0.80;;
62941;SDS011;49042;47.318;19.874;2022-07-10T02:35:19;2.50;;;0.95;;
62941;SDS011;49042;47.318;19.874;2022-07-10T02:38:21;1.40;;;1.00;;
62941;SDS011;49042;47.318;19.874;2022-07-10T02:41:23;1.95;;;0.88;;
62941;SDS011;49042;47.318;19.874;2022-07-10T02:44:24;5.97;;;0.93;;
62941;SDS011;49042;47.318;19.874;2022-07-10T02:47:26;1.30;;;0.85;;
62941;SDS011;49042;47.318;19.874;2022-07-10T02:50:28;1.37;;;1.05;;
62941;SDS011;49042;47.318;19.874;2022-07-10T02:53:30;1.85;;;1.20;;
62941;SDS011;49042;47.318;19.874;2022-07-10T02:56:32;1.73;;;0.88;;
62941;SDS011;49042;47.318;19.874;2022-07-10T02:59:34;2.55;;;0.90;;
62941;SDS011;49042;47.318;19.874;2022-07-10T03:02:36;1.62;;;0.80;;
62941;SDS011;49042;47.318;19.874;2022-07-10T03:05:38;2.08;;;1.08;;
62941;SDS011;49042;47.318;19.874;2022-07-10T03:08:39;1.60;;;1.02;;
62941;SDS011;49042;47.318;19.874;2022-07-10T03:11:43;1.12;;;1.00;;
62941;SDS011;49042;47.318;19.874;2022-07-10T03:14:45;1.65;;;0.98;;
62941;SDS011;49042;47.318;19.874;2022-07-10T03:17:47;5.53;;;0.90;;
62941;SDS011;49042;47.318;19.874;2022-07-10T03:20:49;1.52;;;0.95;;
62941;SDS011;49042;47.318;19.874;2022-07-10T03:23:50;2.12;;;0.98;;
62941;SDS011;49042;47.318;19.874;2022-07-10T03:26:52;2.17;;;1.00;;
62941;SDS011;49042;47.318;19.874;2022-07-10T03:29:54;1.17;;;0.90;;
62941;SDS011;49042;47.318;19.874;2022-07-10T03:32:56;1.33;;;1.00;;
62941;SDS011;49042;47.318;19.874;2022-07-10T03:35:58;3.83;;;0.98;;
62941;SDS011;49042;47.318;19.874;2022-07-10T03:39:02;2.60;;;1.00;;
62941;SDS011;49042;47.318;19.874;2022-07-10T03:42:04;1.50;;;0.90;;
62941;SDS011;49042;47.318;19.874;2022-07-10T03:45:07;1.08;;;0.73;;
62941;SDS011;49042;47.318;19.874;2022-07-10T03:48:09;3.10;;;1.30;;
62941;SDS011;49042;47.318;19.874;2022-07-10T03:51:11;1.23;;;1.00;;
62941;SDS011;49042;47.318;19.874;2022-07-10T03:54:13;1.17;;;1.08;;
62941;SDS011;49042;47.318;19.874;2022-07-10T03:57:14;3.25;;;1.33;;
62941;SDS011;49042;47.318;19.874;2022-07-10T04:00:35;1.58;;;1.00;;
62941;SDS011;49042;47.318;19.874;2022-07-10T04:03:39;2.78;;;0.90;;
62941;SDS011;49042;47.318;19.874;2022-07-10T04:06:41;1.23;;;0.80;;
62941;SDS011;49042;47.318;19.874;2022-07-10T04:09:43;1.25;;;0.82;;
62941;SDS011;49042;47.318;19.874;2022-07-10T04:12:45;4.25;;;0.90;;
62941;SDS011;49042;47.318;19.874;2022-07-10T04:15:46;1.30;;;1.00;;
62941;SDS011;49042;47.318;19.874;2022-07-10T04:18:48;1.10;;;0.80;;
62941;SDS011;49042;47.318;19.874;2022-07-10T04:21:51;4.35;;;0.98;;
62941;SDS011;49042;47.318;19.874;2022-07-10T04:24:53;2.37;;;0.80;;
62941;SDS011;49042;47.318;19.874;2022-07-10T04:27:56;1.00;;;0.80;;
62941;SDS011;49042;47.318;19.874;2022-07-10T04:30:58;2.10;;;1.00;;
62941;SDS011;49042;47.318;19.874;2022-07-10T04:33:59;7.45;;;0.95;;
62941;SDS011;49042;47.318;19.874;2022-07-10T04:37:01;1.80;;;0.90;;
62941;SDS011;49042;47.318;19.874;2022-07-10T04:40:03;3.50;;;1.10;;
62941;SDS011;49042;47.318;19.874;2022-07-10T04:43:06;1.10;;;0.90;;
62941;SDS011;49042;47.318;19.874;2022-07-10T04:46:08;1.58;;;0.95;;
62941;SDS011;49042;47.318;19.874;2022-07-10T04:49:10;1.02;;;0.90;;
62941;SDS011;49042;47.318;19.874;2022-07-10T04:52:12;1.65;;;1.00;;
62941;SDS011;49042;47.318;19.874;2022-07-10T04:55:13;3.85;;;0.98;;
62941;SDS011;49042;47.318;19.874;2022-07-10T04:58:15;1.70;;;1.00;;
62941;SDS011;49042;47.318;19.874;2022-07-10T05:01:17;2.42;;;1.10;;
62941;SDS011;49042;47.318;19.874;2022-07-10T05:04:19;1.27;;;0.90;;
62941;SDS011;49042;47.318;19.874;2022-07-10T05:07:21;3.28;;;1.40;;
62941;SDS011;49042;47.318;19.874;2022-07-10T05:10:23;1.00;;;0.90;;
62941;SDS011;49042;47.318;19.874;2022-07-10T05:13:25;3.17;;;1.05;;
62941;SDS011;49042;47.318;19.874;2022-07-10T05:16:27;1.42;;;0.95;;
62941;SDS011;49042;47.318;19.874;2022-07-10T05:19:29;7.68;;;1.48;;
62941;SDS011;49042;47.318;19.874;2022-07-10T05:22:31;2.92;;;1.00;;
62941;SDS011;49042;47.318;19.874;2022-07-10T05:25:32;6.07;;;1.27;;
62941;SDS011;49042;47.318;19.874;2022-07-10T05:28:34;5.18;;;1.20;;
62941;SDS011;49042;47.318;19.874;2022-07-10T05:31:36;1.40;;;0.90;;
62941;SDS011;49042;47.318;19.874;2022-07-10T05:34:38;2.70;;;1.12;;
62941;SDS011;49042;47.318;19.874;2022-07-10T05:37:40;4.25;;;1.00;;
62941;SDS011;49042;47.318;19.874;2022-07-10T05:40:43;6.87;;;2.28;;
62941;SDS011;49042;47.318;19.874;2022-07-10T05:43:45;2.60;;;1.27;;
62941;SDS011;49042;47.318;19.874;2022-07-10T05:46:47;4.70;;;1.17;;
62941;SDS011;49042;47.318;19.874;2022-07-10T05:49:49;1.30;;;0.90;;
62941;SDS011;49042;47.318;19.874;2022-07-10T05:52:50;8.35;;;0.90;;
62941;SDS011;49042;47.318;19.874;2022-07-10T05:55:52;2.95;;;1.10;;
62941;SDS011;49042;47.318;19.874;2022-07-10T05:58:54;1.70;;;1.10;;
62941;SDS011;49042;47.318;19.874;2022-07-10T06:01:57;1.00;;;0.90;;
62941;SDS011;49042;47.318;19.874;2022-07-10T06:04:59;0.80;;;0.80;;
62941;SDS011;49042;47.318;19.874;2022-07-10T06:08:01;1.27;;;0.90;;
62941;SDS011;49042;47.318;19.874;2022-07-10T06:11:03;1.25;;;0.90;;
62941;SDS011;49042;47.318;19.874;2022-07-10T06:14:05;2.67;;;1.20;;
62941;SDS011;49042;47.318;19.874;2022-07-10T06:17:07;3.37;;;1.02;;
62941;SDS011;49042;47.318;19.874;2022-07-10T06:20:09;4.57;;;1.37;;
62941;SDS011;49042;47.318;19.874;2022-07-10T06:23:11;1.60;;;0.90;;
62941;SDS011;49042;47.318;19.874;2022-07-10T06:26:13;4.57;;;1.20;;
62941;SDS011;49042;47.318;19.874;2022-07-10T06:29:15;1.48;;;0.90;;
62941;SDS011;49042;47.318;19.874;2022-07-10T06:32:17;3.00;;;1.00;;
62941;SDS011;49042;47.318;19.874;2022-07-10T06:35:19;1.55;;;1.10;;
62941;SDS011;49042;47.318;19.874;2022-07-10T06:38:21;1.00;;;0.90;;
62941;SDS011;49042;47.318;19.874;2022-07-10T06:41:22;1.30;;;1.00;;
62941;SDS011;49042;47.318;19.874;2022-07-10T06:44:24;1.55;;;0.95;;
62941;SDS011;49042;47.318;19.874;2022-07-10T06:47:26;1.20;;;1.00;;
62941;SDS011;49042;47.318;19.874;2022-07-10T06:50:46;1.77;;;1.05;;
62941;SDS011;49042;47.318;19.874;2022-07-10T06:53:48;2.87;;;1.10;;
62941;SDS011;49042;47.318;19.874;2022-07-10T06:56:50;3.08;;;1.45;;
62941;SDS011;49042;47.318;19.874;2022-07-10T06:59:52;1.55;;;0.95;;
62941;SDS011;49042;47.318;19.874;2022-07-10T07:02:54;2.45;;;1.10;;
62941;SDS011;49042;47.318;19.874;2022-07-10T07:05:56;5.37;;;1.20;;
62941;SDS011;49042;47.318;19.874;2022-07-10T07:08:58;1.50;;;1.10;;
62941;SDS011;49042;47.318;19.874;2022-07-10T07:12:00;4.07;;;1.10;;
62941;SDS011;49042;47.318;19.874;2022-07-10T07:15:02;1.62;;;1.00;;
62941;SDS011;49042;47.318;19.874;2022-07-10T07:18:05;2.03;;;1.25;;
62941;SDS011;49042;47.318;19.874;2022-07-10T07:21:12;1.12;;;0.90;;
62941;SDS011;49042;47.318;19.874;2022-07-10T07:24:33;1.52;;;1.00;;
62941;SDS011;49042;47.318;19.874;2022-07-10T07:27:35;0.93;;;0.88;;
62941;SDS011;49042;47.318;19.874;2022-07-10T07:30:38;1.45;;;1.15;;
62941;SDS011;49042;47.318;19.874;2022-07-10T07:33:40;4.43;;;1.00;;
62941;SDS011;49042;47.318;19.874;2022-07-10T07:36:42;1.58;;;1.17;;
62941;SDS011;49042;47.318;19.874;2022-07-10T07:39:44;2.22;;;1.00;;
62941;SDS011;49042;47.318;19.874;2022-07-10T07:42:45;2.85;;;1.00;;
62941;SDS011;49042;47.318;19.874;2022-07-10T07:45:48;2.17;;;1.10;;
62941;SDS011;49042;47.318;19.874;2022-07-10T07:48:50;2.20;;;1.00;;
62941;SDS011;49042;47.318;19.874;2022-07-10T07:51:51;2.08;;;0.95;;
62941;SDS011;49042;47.318;19.874;2022-07-10T07:54:53;1.45;;;0.80;;
62941;SDS011;49042;47.318;19.874;2022-07-10T07:57:56;2.67;;;1.02;;
62941;SDS011;49042;47.318;19.874;2022-07-10T08:00:58;1.48;;;0.98;;
62941;SDS011;49042;47.318;19.874;2022-07-10T08:04:00;3.40;;;1.20;;
62941;SDS011;49042;47.318;19.874;2022-07-10T08:07:10;4.10;;;1.00;;
62941;SDS011;49042;47.318;19.874;2022-07-10T08:10:13;2.37;;;1.12;;
62941;SDS011;49042;47.318;19.874;2022-07-10T08:13:16;2.40;;;1.10;;
62941;SDS011;49042;47.318;19.874;2022-07-10T08:16:37;1.20;;;1.10;;
62941;SDS011;49042;47.318;19.874;2022-07-10T08:19:39;1.30;;;0.90;;
62941;SDS011;49042;47.318;19.874;2022-07-10T08:22:41;1.23;;;0.90;;
62941;SDS011;49042;47.318;19.874;2022-07-10T08:25:44;1.62;;;1.00;;
62941;SDS011;49042;47.318;19.874;2022-07-10T08:28:46;5.37;;;1.20;;
62941;SDS011;49042;47.318;19.874;2022-07-10T08:31:47;0.95;;;0.85;;
62941;SDS011;49042;47.318;19.874;2022-07-10T08:34:49;0.90;;;0.70;;
62941;SDS011;49042;47.318;19.874;2022-07-10T08:37:51;2.22;;;0.88;;
62941;SDS011;49042;47.318;19.874;2022-07-10T08:40:53;2.55;;;0.80;;
62941;SDS011;49042;47.318;19.874;2022-07-10T08:43:58;1.35;;;0.90;;
62941;SDS011;49042;47.318;19.874;2022-07-10T08:47:01;1.42;;;0.93;;
62941;SDS011;49042;47.318;19.874;2022-07-10T08:50:03;2.22;;;0.90;;
62941;SDS011;49042;47.318;19.874;2022-07-10T08:56:15;1.30;;;1.00;;
62941;SDS011;49042;47.318;19.874;2022-07-10T08:59:17;1.35;;;0.70;;
62941;SDS011;49042;47.318;19.874;2022-07-10T09:02:20;1.15;;;0.73;;
62941;SDS011;49042;47.318;19.874;2022-07-10T09:05:23;0.50;;;0.50;;
62941;SDS011;49042;47.318;19.874;2022-07-10T09:08:26;4.05;;;0.88;;
62941;SDS011;49042;47.318;19.874;2022-07-10T09:11:40;1.90;;;1.00;;
62941;SDS011;49042;47.318;19.874;2022-07-10T09:18:04;1.00;;;0.73;;
62941;SDS011;49042;47.318;19.874;2022-07-10T09:21:10;1.40;;;0.88;;
62941;SDS011;49042;47.318;19.874;2022-07-10T09:24:12;1.58;;;0.88;;
62941;SDS011;49042;47.318;19.874;2022-07-10T09:27:15;0.93;;;0.80;;
62941;SDS011;49042;47.318;19.874;2022-07-10T09:30:30;1.70;;;1.10;;
62941;SDS011;49042;47.318;19.874;2022-07-10T09:33:36;1.95;;;0.90;;
62941;SDS011;49042;47.318;19.874;2022-07-10T09:36:41;1.17;;;0.98;;
62941;SDS011;49042;47.318;19.874;2022-07-10T09:43:00;1.02;;;0.85;;
62941;SDS011;49042;47.318;19.874;2022-07-10T09:46:05;1.58;;;1.00;;
62941;SDS011;49042;47.318;19.874;2022-07-10T09:49:13;2.03;;;1.08;;
62941;SDS011;49042;47.318;19.874;2022-07-10T09:52:16;5.35;;;0.90;;
62941;SDS011;49042;47.318;19.874;2022-07-10T09:55:20;4.55;;;1.25;;
62941;SDS011;49042;47.318;19.874;2022-07-10T09:58:23;3.22;;;1.30;;
62941;SDS011;49042;47.318;19.874;2022-07-10T10:01:30;1.48;;;1.10;;
62941;SDS011;49042;47.318;19.874;2022-07-10T10:04:33;2.65;;;1.52;;
62941;SDS011;49042;47.318;19.874;2022-07-10T10:07:41;3.75;;;1.50;;
62941;SDS011;49042;47.318;19.874;2022-07-10T10:10:44;4.32;;;1.50;;
62941;SDS011;49042;47.318;19.874;2022-07-10T10:13:49;1.65;;;1.20;;
62941;SDS011;49042;47.318;19.874;2022-07-10T10:16:51;1.75;;;1.02;;
62941;SDS011;49042;47.318;19.874;2022-07-10T10:19:55;3.05;;;1.37;;
62941;SDS011;49042;47.318;19.874;2022-07-10T10:23:24;8.15;;;1.50;;
62941;SDS011;49042;47.318;19.874;2022-07-10T10:26:26;2.53;;;1.60;;
62941;SDS011;49042;47.318;19.874;2022-07-10T10:29:29;6.25;;;1.10;;
62941;SDS011;49042;47.318;19.874;2022-07-10T10:32:32;1.62;;;1.20;;
62941;SDS011;49042;47.318;19.874;2022-07-10T10:35:43;2.28;;;1.33;;
62941;SDS011;49042;47.318;19.874;2022-07-10T10:41:57;2.75;;;1.25;;
62941;SDS011;49042;47.318;19.874;2022-07-10T10:45:42;3.42;;;1.15;;
62941;SDS011;49042;47.318;19.874;2022-07-10T10:48:27;3.28;;;1.33;;
62941;SDS011;49042;47.318;19.874;2022-07-10T10:51:55;1.35;;;1.10;;
62941;SDS011;49042;47.318;19.874;2022-07-10T10:55:02;1.42;;;1.12;;
62941;SDS011;49042;47.318;19.874;2022-07-10T10:58:15;1.77;;;0.93;;
62941;SDS011;49042;47.318;19.874;2022-07-10T11:04:24;2.97;;;0.98;;
62941;SDS011;49042;47.318;19.874;2022-07-10T11:10:57;1.73;;;0.93;;
62941;SDS011;49042;47.318;19.874;2022-07-10T11:14:00;2.58;;;1.10;;
62941;SDS011;49042;47.318;19.874;2022-07-10T11:17:05;2.70;;;1.37;;
62941;SDS011;49042;47.318;19.874;2022-07-10T11:20:08;4.40;;;1.08;;
62941;SDS011;49042;47.318;19.874;2022-07-10T11:26:29;1.67;;;0.77;;
62941;SDS011;49042;47.318;19.874;2022-07-10T11:29:37;2.22;;;1.00;;
62941;SDS011;49042;47.318;19.874;2022-07-10T11:32:40;1.87;;;0.80;;
62941;SDS011;49042;47.318;19.874;2022-07-10T11:35:50;3.62;;;0.90;;
62941;SDS011;49042;47.318;19.874;2022-07-10T11:38:57;2.37;;;0.80;;
62941;SDS011;49042;47.318;19.874;2022-07-10T11:41:59;1.77;;;1.23;;
62941;SDS011;49042;47.318;19.874;2022-07-10T11:45:20;3.40;;;0.82;;
62941;SDS011;49042;47.318;19.874;2022-07-10T11:48:23;5.82;;;1.27;;
62941;SDS011;49042;47.318;19.874;2022-07-10T11:51:26;9.27;;;1.62;;
62941;SDS011;49042;47.318;19.874;2022-07-10T11:54:30;5.50;;;1.17;;
62941;SDS011;49042;47.318;19.874;2022-07-10T11:57:37;2.65;;;1.10;;
62941;SDS011;49042;47.318;19.874;2022-07-10T12:00:42;3.70;;;1.10;;
62941;SDS011;49042;47.318;19.874;2022-07-10T12:03:44;1.75;;;1.20;;
62941;SDS011;49042;47.318;19.874;2022-07-10T12:06:54;3.83;;;1.40;;
62941;SDS011;49042;47.318;19.874;2022-07-10T12:09:56;1.48;;;0.88;;
62941;SDS011;49042;47.318;19.874;2022-07-10T12:13:05;4.62;;;0.93;;
62941;SDS011;49042;47.318;19.874;2022-07-10T12:16:14;1.92;;;1.10;;
62941;SDS011;49042;47.318;19.874;2022-07-10T12:19:17;1.60;;;0.85;;
62941;SDS011;49042;47.318;19.874;2022-07-10T12:22:21;2.17;;;1.00;;
62941;SDS011;49042;47.318;19.874;2022-07-10T12:25:23;1.37;;;0.73;;
62941;SDS011;49042;47.318;19.874;2022-07-10T12:28:26;4.43;;;0.73;;
62941;SDS011;49042;47.318;19.874;2022-07-10T12:31:28;3.35;;;0.70;;
62941;SDS011;49042;47.318;19.874;2022-07-10T12:34:33;4.87;;;0.73;;
62941;SDS011;49042;47.318;19.874;2022-07-10T12:37:36;0.70;;;0.70;;
62941;SDS011;49042;47.318;19.874;2022-07-10T12:40:49;1.45;;;0.80;;
62941;SDS011;49042;47.318;19.874;2022-07-10T12:43:53;1.25;;;0.70;;
62941;SDS011;49042;47.318;19.874;2022-07-10T12:47:11;4.15;;;0.60;;
62941;SDS011;49042;47.318;19.874;2022-07-10T12:50:15;0.88;;;0.60;;
62941;SDS011;49042;47.318;19.874;2022-07-10T12:53:19;4.75;;;0.82;;
62941;SDS011;49042;47.318;19.874;2022-07-10T12:56:28;0.82;;;0.50;;
62941;SDS011;49042;47.318;19.874;2022-07-10T12:59:37;3.47;;;0.67;;
62941;SDS011;49042;47.318;19.874;2022-07-10T13:02:39;2.80;;;0.60;;
62941;SDS011;49042;47.318;19.874;2022-07-10T13:05:41;1.00;;;0.70;;
62941;SDS011;49042;47.318;19.874;2022-07-10T13:08:44;1.80;;;0.80;;
62941;SDS011;49042;47.318;19.874;2022-07-10T13:11:46;2.58;;;0.60;;
62941;SDS011;49042;47.318;19.874;2022-07-10T13:14:48;2.62;;;0.90;;
62941;SDS011;49042;47.318;19.874;2022-07-10T13:17:49;1.73;;;0.75;;
62941;SDS011;49042;47.318;19.874;2022-07-10T13:20:53;0.50;;;0.50;;
62941;SDS011;49042;47.318;19.874;2022-07-10T13:24:02;4.40;;;0.80;;
62941;SDS011;49042;47.318;19.874;2022-07-10T13:27:05;0.77;;;0.60;;
62941;SDS011;49042;47.318;19.874;2022-07-10T13:30:07;2.15;;;0.90;;
62941;SDS011;49042;47.318;19.874;2022-07-10T13:33:09;0.68;;;0.60;;
62941;SDS011;49042;47.318;19.874;2022-07-10T13:36:11;3.37;;;0.65;;
62941;SDS011;49042;47.318;19.874;2022-07-10T13:39:13;4.22;;;0.80;;
62941;SDS011;49042;47.318;19.874;2022-07-10T13:42:15;9.07;;;0.88;;
62941;SDS011;49042;47.318;19.874;2022-07-10T13:45:17;1.02;;;0.43;;
62941;SDS011;49042;47.318;19.874;2022-07-10T13:48:19;0.80;;;0.50;;
62941;SDS011;49042;47.318;19.874;2022-07-10T13:51:21;1.65;;;0.68;;
62941;SDS011;49042;47.318;19.874;2022-07-10T13:54:22;0.82;;;0.52;;
62941;SDS011;49042;47.318;19.874;2022-07-10T13:57:24;0.77;;;0.60;;
62941;SDS011;49042;47.318;19.874;2022-07-10T14:00:26;4.57;;;0.50;;
62941;SDS011;49042;47.318;19.874;2022-07-10T14:03:28;1.92;;;0.60;;
62941;SDS011;49042;47.318;19.874;2022-07-10T14:06:30;1.40;;;0.60;;
62941;SDS011;49042;47.318;19.874;2022-07-10T14:09:32;1.12;;;0.70;;
62941;SDS011;49042;47.318;19.874;2022-07-10T14:12:34;1.02;;;0.62;;
62941;SDS011;49042;47.318;19.874;2022-07-10T14:15:36;1.27;;;0.70;;
62941;SDS011;49042;47.318;19.874;2022-07-10T14:18:38;1.08;;;0.60;;
62941;SDS011;49042;47.318;19.874;2022-07-10T14:21:42;1.15;;;0.60;;
62941;SDS011;49042;47.318;19.874;2022-07-10T14:24:43;4.00;;;0.60;;
62941;SDS011;49042;47.318;19.874;2022-07-10T14:27:45;0.60;;;0.60;;
62941;SDS011;49042;47.318;19.874;2022-07-10T14:30:48;1.90;;;0.73;;
62941;SDS011;49042;47.318;19.874;2022-07-10T14:33:52;2.00;;;0.80;;
62941;SDS011;49042;47.318;19.874;2022-07-10T14:36:54;0.75;;;0.60;;
62941;SDS011;49042;47.318;19.874;2022-07-10T14:40:01;1.10;;;0.80;;
62941;SDS011;49042;47.318;19.874;2022-07-10T14:43:03;1.00;;;0.60;;
62941;SDS011;49042;47.318;19.874;2022-07-10T14:46:05;2.78;;;0.90;;
62941;SDS011;49042;47.318;19.874;2022-07-10T14:49:07;4.72;;;0.60;;
62941;SDS011;49042;47.318;19.874;2022-07-10T14:52:09;4.62;;;0.70;;
62941;SDS011;49042;47.318;19.874;2022-07-10T14:55:11;4.50;;;0.95;;
62941;SDS011;49042;47.318;19.874;2022-07-10T14:58:13;1.85;;;0.70;;
62941;SDS011;49042;47.318;19.874;2022-07-10T15:01:15;3.47;;;0.80;;
62941;SDS011;49042;47.318;19.874;2022-07-10T15:04:17;1.27;;;0.70;;
62941;SDS011;49042;47.318;19.874;2022-07-10T15:07:19;2.45;;;0.73;;
62941;SDS011;49042;47.318;19.874;2022-07-10T15:10:20;3.15;;;0.80;;
62941;SDS011;49042;47.318;19.874;2022-07-10T15:13:22;4.12;;;0.80;;
62941;SDS011;49042;47.318;19.874;2022-07-10T15:16:25;1.15;;;0.62;;
62941;SDS011;49042;47.318;19.874;2022-07-10T15:19:31;0.90;;;0.75;;
62941;SDS011;49042;47.318;19.874;2022-07-10T15:22:32;5.65;;;0.82;;
62941;SDS011;49042;47.318;19.874;2022-07-10T15:25:35;1.60;;;0.80;;
62941;SDS011;49042;47.318;19.874;2022-07-10T15:28:39;3.67;;;0.80;;
62941;SDS011;49042;47.318;19.874;2022-07-10T15:31:41;1.20;;;0.77;;
62941;SDS011;49042;47.318;19.874;2022-07-10T15:34:43;2.53;;;1.00;;
62941;SDS011;49042;47.318;19.874;2022-07-10T15:37:45;2.40;;;0.82;;
62941;SDS011;49042;47.318;19.874;2022-07-10T15:40:46;4.57;;;1.05;;
62941;SDS011;49042;47.318;19.874;2022-07-10T15:43:48;3.37;;;0.82;;
62941;SDS011;49042;47.318;19.874;2022-07-10T15:46:50;5.00;;;0.90;;
62941;SDS011;49042;47.318;19.874;2022-07-10T15:49:52;6.15;;;0.85;;
62941;SDS011;49042;47.318;19.874;2022-07-10T15:52:54;3.90;;;1.00;;
62941;SDS011;49042;47.318;19.874;2022-07-10T15:55:55;5.43;;;1.05;;
62941;SDS011;49042;47.318;19.874;2022-07-10T15:58:57;2.83;;;1.00;;
62941;SDS011;49042;47.318;19.874;2022-07-10T16:01:59;2.75;;;0.80;;
62941;SDS011;49042;47.318;19.874;2022-07-10T16:05:02;2.60;;;0.70;;
62941;SDS011;49042;47.318;19.874;2022-07-10T16:08:05;2.05;;;0.85;;
62941;SDS011;49042;47.318;19.874;2022-07-10T16:11:07;5.93;;;0.80;;
62941;SDS011;49042;47.318;19.874;2022-07-10T16:14:09;2.35;;;0.80;;
62941;SDS011;49042;47.318;19.874;2022-07-10T16:17:11;1.83;;;0.80;;
62941;SDS011;49042;47.318;19.874;2022-07-10T16:20:13;5.60;;;0.80;;
62941;SDS011;49042;47.318;19.874;2022-07-10T16:23:16;4.05;;;0.75;;
62941;SDS011;49042;47.318;19.874;2022-07-10T16:26:18;3.83;;;0.57;;
62941;SDS011;49042;47.318;19.874;2022-07-10T16:29:21;3.92;;;0.70;;
62941;SDS011;49042;47.318;19.874;2022-07-10T16:32:26;3.12;;;0.62;;
62941;SDS011;49042;47.318;19.874;2022-07-10T16:35:28;7.22;;;0.80;;
62941;SDS011;49042;47.318;19.874;2022-07-10T16:38:30;2.83;;;0.82;;
62941;SDS011;49042;47.318;19.874;2022-07-10T16:41:32;3.25;;;0.70;;
62941;SDS011;49042;47.318;19.874;2022-07-10T16:44:35;4.20;;;0.77;;
62941;SDS011;49042;47.318;19.874;2022-07-10T16:47:37;4.90;;;0.70;;
62941;SDS011;49042;47.318;19.874;2022-07-10T16:50:39;5.85;;;0.80;;
62941;SDS011;49042;47.318;19.874;2022-07-10T16:53:41;1.25;;;0.65;;
62941;SDS011;49042;47.318;19.874;2022-07-10T16:57:03;1.87;;;0.90;;
62941;SDS011;49042;47.318;19.874;2022-07-10T17:00:14;4.30;;;0.70;;
62941;SDS011;49042;47.318;19.874;2022-07-10T17:03:16;3.25;;;0.70;;
62941;SDS011;49042;47.318;19.874;2022-07-10T17:06:18;3.17;;;0.80;;
62941;SDS011;49042;47.318;19.874;2022-07-10T17:09:20;2.95;;;0.88;;
62941;SDS011;49042;47.318;19.874;2022-07-10T17:12:21;3.33;;;0.70;;
62941;SDS011;49042;47.318;19.874;2022-07-10T17:15:23;9.20;;;0.60;;
62941;SDS011;49042;47.318;19.874;2022-07-10T17:18:26;1.23;;;0.50;;
62941;SDS011;49042;47.318;19.874;2022-07-10T17:21:29;4.05;;;0.68;;
62941;SDS011;49042;47.318;19.874;2022-07-10T17:24:51;3.05;;;0.80;;
62941;SDS011;49042;47.318;19.874;2022-07-10T17:27:55;2.60;;;1.00;;
62941;SDS011;49042;47.318;19.874;2022-07-10T17:30:56;7.18;;;1.30;;
62941;SDS011;49042;47.318;19.874;2022-07-10T17:33:58;2.70;;;1.20;;
62941;SDS011;49042;47.318;19.874;2022-07-10T17:37:02;1.75;;;1.05;;
62941;SDS011;49042;47.318;19.874;2022-07-10T17:40:05;5.95;;;1.30;;
62941;SDS011;49042;47.318;19.874;2022-07-10T17:43:07;2.20;;;1.20;;
62941;SDS011;49042;47.318;19.874;2022-07-10T17:46:09;2.85;;;1.48;;
62941;SDS011;49042;47.318;19.874;2022-07-10T17:49:11;1.75;;;1.20;;
62941;SDS011;49042;47.318;19.874;2022-07-10T17:52:13;1.37;;;1.10;;
62941;SDS011;49042;47.318;19.874;2022-07-10T17:55:14;2.65;;;0.90;;
62941;SDS011;49042;47.318;19.874;2022-07-10T17:58:16;5.78;;;0.82;;
62941;SDS011;49042;47.318;19.874;2022-07-10T18:01:18;2.55;;;1.10;;
62941;SDS011;49042;47.318;19.874;2022-07-10T18:04:20;7.40;;;1.35;;
62941;SDS011;49042;47.318;19.874;2022-07-10T18:07:22;2.95;;;1.60;;
62941;SDS011;49042;47.318;19.874;2022-07-10T18:10:24;3.35;;;1.75;;
62941;SDS011;49042;47.318;19.874;2022-07-10T18:13:26;8.55;;;2.22;;
62941;SDS011;49042;47.318;19.874;2022-07-10T18:16:27;5.12;;;2.00;;
62941;SDS011;49042;47.318;19.874;2022-07-10T18:19:30;3.12;;;1.77;;
62941;SDS011;49042;47.318;19.874;2022-07-10T18:22:32;4.03;;;1.80;;
62941;SDS011;49042;47.318;19.874;2022-07-10T18:25:33;4.93;;;1.70;;
62941;SDS011;49042;47.318;19.874;2022-07-10T18:28:36;4.00;;;1.50;;
62941;SDS011;49042;47.318;19.874;2022-07-10T18:31:40;14.20;;;1.40;;